Аэропорт
Ош (UCFO)

 UCFO / OSS
ЗЦ Центральная Азия
Ош (UCFO)
Ош (UCFO)
 40.60900, 72.79330  / 2927 ft

 UCFO 101730Z 11002MPS 9999 VCTS SCT050CB BKN100 24/15 Q1008 R12/0///95 TEMPO VRB07MPS TS
 TAF UCFO 101041Z 1012/1112 17003G08MPS 9999 FEW050CB SCT100 TEMPO 1012/1018 25007G12MPS 5000 HZ SCT050CB PROB40 TEMPO 1012/1018 VRB12MPS TS BECMG 1102/1104 27003G08MPS
показать схемы



2020 © VATRUS division (Privacy Policy)